createdAt,value
2023-05-24T00:00:28.760Z,53.39
2023-05-24T00:02:57.400Z,53.54
2023-05-24T00:05:24.344Z,53.56
2023-05-24T00:07:50.907Z,53.69
2023-05-24T00:10:17.310Z,53.65
2023-05-24T00:12:43.697Z,53.54
2023-05-24T00:15:10.522Z,53.31
2023-05-24T00:17:40.968Z,53.43
2023-05-24T00:20:10.842Z,53.64
2023-05-24T00:22:38.039Z,53.67
2023-05-24T00:25:05.102Z,54.10
2023-05-24T00:27:31.931Z,54.08
2023-05-24T00:29:59.339Z,53.98
2023-05-24T00:32:27.109Z,54.14
2023-05-24T00:34:53.559Z,54.00
2023-05-24T00:37:19.938Z,54.17
2023-05-24T00:39:46.384Z,54.34
2023-05-24T00:42:12.783Z,54.47
2023-05-24T00:44:39.211Z,54.65
2023-05-24T00:47:06.015Z,55.08
2023-05-24T00:49:35.035Z,54.84
2023-05-24T00:52:01.786Z,54.92
2023-05-24T00:54:29.381Z,55.23
2023-05-24T00:56:56.804Z,55.30
2023-05-24T00:59:26.719Z,55.51
2023-05-24T01:01:55.397Z,55.78
2023-05-24T01:04:22.970Z,55.64
2023-05-24T01:07:07.615Z,55.91
2023-05-24T01:09:46.030Z,56.02
2023-05-24T01:12:26.410Z,55.85
2023-05-24T01:15:05.200Z,56.31
2023-05-24T01:17:48.386Z,56.42
2023-05-24T01:20:17.506Z,56.63
2023-05-24T01:23:04.739Z,56.79
2023-05-24T01:26:00.674Z,56.55
2023-05-24T01:28:27.571Z,56.48
2023-05-24T01:30:55.761Z,56.95
2023-05-24T01:33:23.422Z,57.17
2023-05-24T01:35:49.819Z,57.29
2023-05-24T01:38:16.266Z,57.68
2023-05-24T01:40:44.241Z,57.67
2023-05-24T01:43:31.509Z,57.72
2023-05-24T01:46:09.606Z,57.97
2023-05-24T01:49:09.977Z,58.37
2023-05-24T01:51:44.206Z,58.37
2023-05-24T01:54:13.272Z,58.65
2023-05-24T01:56:41.660Z,58.44
2023-05-24T01:59:09.167Z,58.55
2023-05-24T02:01:35.839Z,58.48
2023-05-24T02:04:02.939Z,58.44
2023-05-24T02:06:29.531Z,58.53
2023-05-24T02:08:55.952Z,58.37
2023-05-24T02:11:22.876Z,58.91
2023-05-24T02:13:49.298Z,59.09
2023-05-24T02:16:15.749Z,59.34
2023-05-24T02:18:46.752Z,59.40
2023-05-24T02:21:13.666Z,59.64
2023-05-24T02:23:40.136Z,59.62
2023-05-24T02:26:06.596Z,59.69
2023-05-24T02:28:33.042Z,60.06
2023-05-24T02:30:59.484Z,59.88
2023-05-24T02:33:26.012Z,60.13
2023-05-24T02:35:52.542Z,60.21
2023-05-24T02:38:19.017Z,59.97
2023-05-24T02:40:45.433Z,59.92
2023-05-24T02:43:11.842Z,60.01
2023-05-24T02:45:38.234Z,60.54
2023-05-24T02:48:04.963Z,60.64
2023-05-24T02:50:31.507Z,60.82
2023-05-24T02:52:57.955Z,61.40
2023-05-24T02:55:24.686Z,61.58
2023-05-24T02:57:51.354Z,61.73
2023-05-24T03:00:18.515Z,61.92
2023-05-24T03:02:47.622Z,61.93
2023-05-24T03:05:14.617Z,62.17
2023-05-24T03:07:41.146Z,62.34
2023-05-24T03:10:08.022Z,62.45
2023-05-24T03:12:34.476Z,62.58
2023-05-24T03:15:00.920Z,62.69
2023-05-24T03:17:27.471Z,62.66
2023-05-24T03:19:53.985Z,62.83
2023-05-24T03:22:20.474Z,63.00
2023-05-24T03:24:48.632Z,63.01
2023-05-24T03:27:15.182Z,62.90
2023-05-24T03:29:41.993Z,63.07
2023-05-24T03:32:08.523Z,63.13
2023-05-24T03:34:35.011Z,63.15
2023-05-24T03:37:01.655Z,63.09
2023-05-24T03:39:28.198Z,63.11
2023-05-24T03:42:01.076Z,63.11
2023-05-24T03:44:27.548Z,63.22
2023-05-24T03:46:54.130Z,63.27
2023-05-24T03:49:20.556Z,63.13
2023-05-24T03:51:47.000Z,63.24
2023-05-24T03:54:13.373Z,63.09
2023-05-24T03:56:41.305Z,62.94
2023-05-24T03:59:08.450Z,63.10
2023-05-24T04:01:36.636Z,63.23
2023-05-24T04:04:04.037Z,63.05
2023-05-24T04:06:30.887Z,63.03
2023-05-24T04:08:59.672Z,63.02
2023-05-24T04:11:29.071Z,63.06
2023-05-24T04:13:57.162Z,63.02
2023-05-24T04:16:24.517Z,63.16
2023-05-24T04:18:51.325Z,63.06
2023-05-24T04:21:17.885Z,63.46
2023-05-24T04:23:44.410Z,63.33
2023-05-24T04:26:10.974Z,63.30
2023-05-24T04:28:41.052Z,63.30
2023-05-24T04:31:09.304Z,63.44
2023-05-24T04:33:36.897Z,63.35
2023-05-24T04:36:03.451Z,63.62
2023-05-24T04:38:32.184Z,63.63
2023-05-24T04:40:59.385Z,63.71
2023-05-24T04:43:28.742Z,63.79
2023-05-24T04:45:55.557Z,64.06
2023-05-24T04:48:24.354Z,63.86
2023-05-24T04:50:52.274Z,64.03
2023-05-24T04:53:19.799Z,64.12
2023-05-24T04:55:46.687Z,64.25
2023-05-24T04:58:13.954Z,64.15
2023-05-24T05:00:40.696Z,64.00
2023-05-24T05:03:08.247Z,64.20
2023-05-24T05:05:34.985Z,63.93
2023-05-24T05:08:02.433Z,64.06
2023-05-24T05:10:29.039Z,63.99
2023-05-24T05:12:55.798Z,64.05
2023-05-24T05:15:23.902Z,64.23
2023-05-24T05:17:50.513Z,64.08
2023-05-24T05:20:17.106Z,64.32
2023-05-24T05:22:49.958Z,64.19
2023-05-24T05:25:16.481Z,64.12
2023-05-24T05:27:43.469Z,63.89
2023-05-24T05:30:10.422Z,63.73
2023-05-24T05:32:38.365Z,64.05
2023-05-24T05:35:05.541Z,63.90
2023-05-24T05:37:32.111Z,63.92
2023-05-24T05:39:58.550Z,63.84
2023-05-24T05:42:25.065Z,63.69
2023-05-24T05:44:52.547Z,64.11
2023-05-24T05:47:19.092Z,63.81
2023-05-24T05:49:45.539Z,63.81
2023-05-24T05:52:12.073Z,63.70
2023-05-24T05:54:38.534Z,63.44
2023-05-24T05:57:05.390Z,63.57
2023-05-24T05:59:35.809Z,62.94
2023-05-24T06:02:03.590Z,63.14
2023-05-24T06:04:30.176Z,62.90
2023-05-24T06:06:56.938Z,62.47
2023-05-24T06:09:23.358Z,62.28
2023-05-24T06:11:49.838Z,62.15
2023-05-24T06:14:21.200Z,62.21
2023-05-24T06:16:48.407Z,62.05
2023-05-24T06:19:15.367Z,61.85
2023-05-24T06:21:47.155Z,62.17
2023-05-24T06:24:15.125Z,62.04
2023-05-24T06:26:41.977Z,61.86
2023-05-24T06:29:09.491Z,61.40
2023-05-24T06:31:36.057Z,61.19
2023-05-24T06:34:04.444Z,61.42
2023-05-24T06:36:35.386Z,61.04
2023-05-24T06:39:02.692Z,60.72
2023-05-24T06:41:29.196Z,60.48
2023-05-24T06:43:55.690Z,60.41
2023-05-24T06:46:22.125Z,59.86
2023-05-24T06:48:48.647Z,58.06
2023-05-24T06:51:15.218Z,58.58
2023-05-24T06:53:41.696Z,58.79
2023-05-24T06:56:09.403Z,58.69
2023-05-24T06:58:36.497Z,57.90
2023-05-24T07:01:04.975Z,58.32
2023-05-24T07:03:32.334Z,57.88
2023-05-24T07:05:58.991Z,58.90
2023-05-24T07:08:25.735Z,58.62
2023-05-24T07:10:53.503Z,58.19
2023-05-24T07:13:20.022Z,57.78
2023-05-24T07:15:47.026Z,57.65
2023-05-24T07:18:14.168Z,57.85
2023-05-24T07:20:41.050Z,57.07
2023-05-24T07:23:07.863Z,57.54
2023-05-24T07:25:34.334Z,57.80
2023-05-24T07:28:01.180Z,57.60
2023-05-24T07:30:34.852Z,58.05
2023-05-24T07:33:01.842Z,56.99
2023-05-24T07:35:29.337Z,57.73
2023-05-24T07:37:56.427Z,56.89
2023-05-24T07:40:23.143Z,57.39
2023-05-24T07:42:49.680Z,57.50
2023-05-24T07:45:16.150Z,57.53
2023-05-24T07:47:42.955Z,57.37
2023-05-24T07:50:10.467Z,57.33
2023-05-24T07:52:38.703Z,57.79
2023-05-24T07:55:06.467Z,57.46
2023-05-24T07:57:33.560Z,58.55
2023-05-24T08:00:05.928Z,57.15
2023-05-24T08:02:38.213Z,57.69
2023-05-24T08:05:05.306Z,57.22
2023-05-24T08:07:31.739Z,56.02
2023-05-24T08:09:58.154Z,55.88
2023-05-24T08:12:25.898Z,56.43
2023-05-24T08:14:52.545Z,56.53
2023-05-24T08:17:18.978Z,55.92
2023-05-24T08:19:45.390Z,54.65
2023-05-24T08:22:12.646Z,55.17
2023-05-24T08:24:39.099Z,54.93
2023-05-24T08:27:05.573Z,55.31
2023-05-24T08:29:32.389Z,54.88
2023-05-24T08:31:59.867Z,54.05
2023-05-24T08:34:26.725Z,54.87
2023-05-24T08:36:53.726Z,54.75
2023-05-24T08:39:20.171Z,55.87
2023-05-24T08:41:57.407Z,55.45
2023-05-24T08:44:42.118Z,53.72
2023-05-24T08:47:09.664Z,53.29
2023-05-24T08:49:37.695Z,52.97
2023-05-24T08:52:07.412Z,52.88
2023-05-24T08:54:37.471Z,52.34
2023-05-24T08:57:04.410Z,51.15
2023-05-24T08:59:31.024Z,52.05
2023-05-24T09:01:58.061Z,51.95
2023-05-24T09:04:26.752Z,50.97
2023-05-24T09:06:54.863Z,50.97
2023-05-24T09:09:22.157Z,50.75
2023-05-24T09:11:51.785Z,50.96
2023-05-24T09:14:18.641Z,50.62
2023-05-24T09:16:45.680Z,50.46
2023-05-24T09:19:12.215Z,50.48
2023-05-24T09:21:38.682Z,50.13
2023-05-24T09:24:08.454Z,50.00
2023-05-24T09:26:37.161Z,50.58
2023-05-24T09:29:07.676Z,49.85
2023-05-24T09:31:35.953Z,50.68
2023-05-24T09:34:03.277Z,49.94
2023-05-24T09:36:36.824Z,50.16
2023-05-24T09:39:09.393Z,50.35
2023-05-24T09:41:37.198Z,50.69
2023-05-24T09:44:04.077Z,50.29
2023-05-24T09:46:35.993Z,50.18
2023-05-24T09:49:04.059Z,50.11
2023-05-24T09:51:30.971Z,49.99
2023-05-24T09:53:58.222Z,50.33
2023-05-24T09:56:26.234Z,49.81
2023-05-24T09:58:54.811Z,49.42
2023-05-24T10:01:25.206Z,49.10
2023-05-24T10:03:57.482Z,50.00
2023-05-24T10:06:25.044Z,50.32
2023-05-24T10:08:52.197Z,50.22
2023-05-24T10:11:19.053Z,50.57
2023-05-24T10:13:45.474Z,49.83
2023-05-24T10:16:12.821Z,49.65
2023-05-24T10:18:39.751Z,49.02
2023-05-24T10:21:09.697Z,49.13
2023-05-24T10:23:43.784Z,49.82
2023-05-24T10:26:12.602Z,49.43
2023-05-24T10:28:44.315Z,49.19
2023-05-24T10:31:15.741Z,49.28
2023-05-24T10:33:44.835Z,49.25
2023-05-24T10:36:13.914Z,49.47
2023-05-24T10:38:40.799Z,50.02
2023-05-24T10:41:08.442Z,49.64
2023-05-24T10:43:36.475Z,49.93
2023-05-24T10:46:04.777Z,50.17
2023-05-24T10:49:01.117Z,50.37
2023-05-24T10:51:39.472Z,50.21
2023-05-24T10:54:13.731Z,50.35
2023-05-24T10:56:50.822Z,50.37
2023-05-24T10:59:28.409Z,49.75
2023-05-24T11:01:57.457Z,49.46
2023-05-24T11:04:23.940Z,49.22
2023-05-24T11:07:01.410Z,48.64
2023-05-24T11:09:27.881Z,49.04
2023-05-24T11:11:57.535Z,48.29
2023-05-24T11:14:27.350Z,48.45
2023-05-24T11:16:54.124Z,48.02
2023-05-24T11:19:28.910Z,47.65
2023-05-24T11:21:58.901Z,47.84
2023-05-24T11:24:26.708Z,47.39
2023-05-24T11:26:53.831Z,47.31
2023-05-24T11:29:24.016Z,47.50
2023-05-24T11:31:57.343Z,46.81
2023-05-24T11:34:24.599Z,46.40
2023-05-24T11:36:53.257Z,46.47
2023-05-24T11:39:19.675Z,46.60
2023-05-24T11:41:47.523Z,46.90
2023-05-24T11:44:18.926Z,47.49
2023-05-24T11:46:46.287Z,46.83
2023-05-24T11:49:14.794Z,47.44
2023-05-24T11:51:41.739Z,47.80
2023-05-24T11:54:08.549Z,47.73
2023-05-24T11:56:35.215Z,48.42
2023-05-24T11:59:17.845Z,47.84
2023-05-24T12:01:44.567Z,47.39
2023-05-24T12:04:11.868Z,47.62
2023-05-24T12:06:43.300Z,48.06
2023-05-24T12:09:13.540Z,48.21
2023-05-24T12:11:44.549Z,48.23
2023-05-24T12:14:15.749Z,47.53
2023-05-24T12:16:43.418Z,48.32
2023-05-24T12:21:59.034Z,46.57
2023-05-24T12:24:26.861Z,46.13
2023-05-24T12:26:58.302Z,46.33
2023-05-24T12:29:24.786Z,46.43
2023-05-24T12:31:51.311Z,46.69
2023-05-24T12:34:19.699Z,47.21
2023-05-24T12:36:47.699Z,46.79
2023-05-24T12:39:25.042Z,46.55
2023-05-24T12:41:55.521Z,46.12
2023-05-24T12:44:26.359Z,46.34
2023-05-24T12:46:54.087Z,46.82
2023-05-24T12:49:20.840Z,46.73
2023-05-24T12:51:49.391Z,46.52
2023-05-24T12:54:19.261Z,46.58
2023-05-24T12:56:46.075Z,46.30
2023-05-24T12:59:12.642Z,46.57
2023-05-24T13:01:39.095Z,47.90
2023-05-24T13:04:05.633Z,47.58
2023-05-24T13:06:32.147Z,46.91
2023-05-24T13:08:58.604Z,47.24
2023-05-24T13:11:28.649Z,47.24
2023-05-24T13:13:55.105Z,46.99
2023-05-24T13:16:21.610Z,47.77
2023-05-24T13:18:48.171Z,46.94
2023-05-24T13:21:14.937Z,47.01
2023-05-24T13:23:43.215Z,47.64
2023-05-24T13:26:09.669Z,46.90
2023-05-24T13:28:36.378Z,46.72
2023-05-24T13:31:03.629Z,46.72
2023-05-24T13:33:32.921Z,47.74
2023-05-24T13:35:59.533Z,47.68
2023-05-24T13:38:26.011Z,47.33
2023-05-24T13:40:53.639Z,47.19
2023-05-24T13:43:20.149Z,47.59
2023-05-24T13:45:46.699Z,47.01
2023-05-24T13:48:13.291Z,46.85
2023-05-24T13:50:40.246Z,46.79
2023-05-24T13:53:07.057Z,46.32
2023-05-24T13:55:35.437Z,47.01
2023-05-24T13:58:02.248Z,47.32
2023-05-24T14:00:28.688Z,47.26
2023-05-24T14:02:55.703Z,47.13
2023-05-24T14:05:27.308Z,47.15
2023-05-24T14:07:55.329Z,46.90
2023-05-24T14:10:22.042Z,46.93
2023-05-24T14:12:56.434Z,47.04
2023-05-24T14:15:30.501Z,47.16
2023-05-24T14:17:58.059Z,47.39
2023-05-24T14:20:24.643Z,47.31
2023-05-24T14:22:51.051Z,47.08
2023-05-24T14:25:17.752Z,46.68
2023-05-24T14:27:45.499Z,46.63
2023-05-24T14:30:12.580Z,46.81
2023-05-24T14:32:38.991Z,47.28
2023-05-24T14:35:05.976Z,47.13
2023-05-24T14:37:32.554Z,46.97
2023-05-24T14:39:59.027Z,47.02
2023-05-24T14:42:25.572Z,46.86
2023-05-24T14:44:52.002Z,47.11
2023-05-24T14:47:18.460Z,46.86
2023-05-24T14:49:44.860Z,46.81
2023-05-24T14:52:11.301Z,46.95
2023-05-24T14:54:37.725Z,47.22
2023-05-24T14:57:04.413Z,47.21
2023-05-24T14:59:30.809Z,47.13
2023-05-24T15:01:57.222Z,47.39
2023-05-24T15:04:23.619Z,47.44
2023-05-24T15:06:50.233Z,47.68
2023-05-24T15:09:16.812Z,47.69
2023-05-24T15:11:43.311Z,48.48
2023-05-24T15:14:09.713Z,47.95
2023-05-24T15:16:36.527Z,47.90
2023-05-24T15:19:03.391Z,47.38
2023-05-24T15:21:29.780Z,48.13
2023-05-24T15:23:56.184Z,47.94
2023-05-24T15:26:22.653Z,47.30
2023-05-24T15:28:49.054Z,47.44
2023-05-24T15:31:15.483Z,47.12
2023-05-24T15:33:42.080Z,47.15
2023-05-24T15:36:08.613Z,47.26
2023-05-24T15:38:35.128Z,47.21
2023-05-24T15:41:01.626Z,47.17
2023-05-24T15:43:35.518Z,47.24
2023-05-24T15:46:01.937Z,47.49
2023-05-24T15:48:28.364Z,47.34
2023-05-24T15:51:42.810Z,47.34
2023-05-24T15:53:41.594Z,46.84
2023-05-24T15:56:08.701Z,47.26
2023-05-24T15:58:35.121Z,47.31
2023-05-24T16:01:01.540Z,47.58
2023-05-24T16:03:27.981Z,47.84
2023-05-24T16:05:54.524Z,48.04
2023-05-24T16:08:27.322Z,47.27
2023-05-24T16:10:54.590Z,47.55
2023-05-24T16:13:21.569Z,47.17
2023-05-24T16:15:51.496Z,47.26
2023-05-24T16:18:21.266Z,46.81
2023-05-24T16:20:51.233Z,46.78
2023-05-24T16:23:19.161Z,46.86
2023-05-24T16:25:51.741Z,47.08
2023-05-24T16:28:23.558Z,47.37
2023-05-24T16:30:55.849Z,47.78
2023-05-24T16:33:23.483Z,47.24
2023-05-24T16:35:55.117Z,47.06
2023-05-24T16:38:23.366Z,46.87
2023-05-24T16:40:50.162Z,47.24
2023-05-24T16:43:17.482Z,47.50
2023-05-24T16:45:44.730Z,47.13
2023-05-24T16:48:11.699Z,47.04
2023-05-24T16:50:38.193Z,47.10
2023-05-24T16:53:06.468Z,46.62
2023-05-24T16:55:33.241Z,46.25
2023-05-24T16:57:59.682Z,45.96
2023-05-24T17:00:26.304Z,46.16
2023-05-24T17:02:52.824Z,46.06
2023-05-24T17:05:19.246Z,47.10
2023-05-24T17:07:45.918Z,46.50
2023-05-24T17:10:12.328Z,46.15
2023-05-24T17:12:38.733Z,46.12
2023-05-24T17:15:05.501Z,46.08
2023-05-24T17:17:31.947Z,45.86
2023-05-24T17:19:58.379Z,46.21
2023-05-24T17:22:24.800Z,46.02
2023-05-24T17:24:51.192Z,46.74
2023-05-24T17:27:22.116Z,46.34
2023-05-24T17:29:48.827Z,46.74
2023-05-24T17:32:15.390Z,46.79
2023-05-24T17:34:41.767Z,46.70
2023-05-24T17:37:08.192Z,47.01
2023-05-24T17:39:34.692Z,46.95
2023-05-24T17:42:01.252Z,46.93
2023-05-24T17:44:27.668Z,47.57
2023-05-24T17:46:54.292Z,47.48
2023-05-24T17:49:20.755Z,48.14
2023-05-24T17:51:47.243Z,47.55
2023-05-24T17:54:13.778Z,47.38
2023-05-24T17:56:40.201Z,47.91
2023-05-24T17:59:06.760Z,47.81
2023-05-24T18:01:33.368Z,47.15
2023-05-24T18:03:59.900Z,47.32
2023-05-24T18:06:26.659Z,47.50
2023-05-24T18:08:53.526Z,47.51
2023-05-24T18:11:19.995Z,47.46
2023-05-24T18:13:46.870Z,48.08
2023-05-24T18:16:13.857Z,48.48
2023-05-24T18:18:40.949Z,48.95
2023-05-24T18:21:09.390Z,49.35
2023-05-24T18:23:39.414Z,49.20
2023-05-24T18:26:10.614Z,48.69
2023-05-24T18:28:38.149Z,48.40
2023-05-24T18:31:08.188Z,48.10
2023-05-24T18:33:35.047Z,48.14
2023-05-24T18:36:02.001Z,48.30
2023-05-24T18:38:28.524Z,48.19
2023-05-24T18:40:55.045Z,48.37
2023-05-24T18:43:21.568Z,48.55
2023-05-24T18:45:48.007Z,48.66
2023-05-24T18:48:14.457Z,48.66
2023-05-24T18:50:40.946Z,48.66
2023-05-24T18:53:07.380Z,48.57
2023-05-24T18:55:33.842Z,48.58
2023-05-24T18:58:00.405Z,48.64
2023-05-24T19:00:27.051Z,49.04
2023-05-24T19:02:55.332Z,49.07
2023-05-24T19:05:21.953Z,49.08
2023-05-24T19:07:48.414Z,49.25
2023-05-24T19:10:14.988Z,49.32
2023-05-24T19:12:41.472Z,49.15
2023-05-24T19:15:08.500Z,49.45
2023-05-24T19:17:35.139Z,49.67
2023-05-24T19:20:02.321Z,49.66
2023-05-24T19:22:29.100Z,49.56
2023-05-24T19:24:56.233Z,49.93
2023-05-24T19:27:23.027Z,49.80
2023-05-24T19:29:49.485Z,49.81
2023-05-24T19:32:16.760Z,50.17
2023-05-24T19:34:43.302Z,50.29
2023-05-24T19:37:09.853Z,50.43
2023-05-24T19:39:36.996Z,50.54
2023-05-24T19:42:03.981Z,51.03
2023-05-24T19:44:30.827Z,51.39
2023-05-24T19:46:57.302Z,51.77
2023-05-24T19:49:23.736Z,52.28
2023-05-24T19:51:50.276Z,52.63
2023-05-24T19:54:16.727Z,52.86
2023-05-24T19:56:43.160Z,53.12
2023-05-24T19:59:09.598Z,52.93
2023-05-24T20:01:36.205Z,53.50
2023-05-24T20:04:02.838Z,53.40
2023-05-24T20:06:29.631Z,53.46
2023-05-24T20:08:58.651Z,54.15
2023-05-24T20:11:25.757Z,54.10
2023-05-24T20:13:52.541Z,54.40
2023-05-24T20:16:19.267Z,54.51
2023-05-24T20:18:45.752Z,54.65
2023-05-24T20:21:12.203Z,55.19
2023-05-24T20:23:38.669Z,55.44
2023-05-24T20:26:05.186Z,55.47
2023-05-24T20:28:32.165Z,55.35
2023-05-24T20:30:59.139Z,55.64
2023-05-24T20:33:25.644Z,56.08
2023-05-24T20:35:53.914Z,55.65
2023-05-24T20:38:20.697Z,55.68
2023-05-24T20:40:47.088Z,56.16
2023-05-24T20:43:13.542Z,55.84
2023-05-24T20:45:40.009Z,56.23
2023-05-24T20:48:06.813Z,56.24
2023-05-24T20:50:33.306Z,56.75
2023-05-24T20:52:59.787Z,56.64
2023-05-24T20:55:27.059Z,56.86
2023-05-24T20:57:53.914Z,56.68
2023-05-24T21:00:20.559Z,57.00
2023-05-24T21:02:47.158Z,56.89
2023-05-24T21:05:13.825Z,57.31
2023-05-24T21:07:40.563Z,57.04
2023-05-24T21:10:07.682Z,57.54
2023-05-24T21:12:34.127Z,57.57
2023-05-24T21:15:00.701Z,57.58
2023-05-24T21:17:27.178Z,57.97
2023-05-24T21:19:53.692Z,57.92
2023-05-24T21:22:20.252Z,58.01
2023-05-24T21:24:46.827Z,57.94
2023-05-24T21:27:13.326Z,57.64
2023-05-24T21:29:41.609Z,58.43
2023-05-24T21:32:08.080Z,58.05
2023-05-24T21:34:35.703Z,58.69
2023-05-24T21:37:02.582Z,58.06
2023-05-24T21:39:29.183Z,58.24
2023-05-24T21:41:55.711Z,58.82
2023-05-24T21:44:22.234Z,59.02
2023-05-24T21:46:48.706Z,59.01
2023-05-24T21:49:17.107Z,58.88
2023-05-24T21:51:43.511Z,59.16
2023-05-24T21:54:09.929Z,59.08
2023-05-24T21:56:37.158Z,59.02
2023-05-24T21:59:03.592Z,59.13
2023-05-24T22:01:30.101Z,59.57
2023-05-24T22:03:56.738Z,59.78
2023-05-24T22:06:23.514Z,60.17
2023-05-24T22:08:49.978Z,59.97
2023-05-24T22:11:16.411Z,60.17
2023-05-24T22:13:42.881Z,60.41
2023-05-24T22:16:09.519Z,60.26
2023-05-24T22:18:35.949Z,60.60
2023-05-24T22:21:02.380Z,60.77
2023-05-24T22:23:28.895Z,60.66
2023-05-24T22:25:55.605Z,59.98
2023-05-24T22:28:24.466Z,59.98
2023-05-24T22:30:51.051Z,60.65
2023-05-24T22:33:17.512Z,60.56
2023-05-24T22:35:44.134Z,60.47
2023-05-24T22:38:10.884Z,60.78
2023-05-24T22:40:40.845Z,60.88
2023-05-24T22:43:07.287Z,61.00
2023-05-24T22:45:33.678Z,60.87
2023-05-24T22:48:00.122Z,61.03
2023-05-24T22:50:26.996Z,61.29
2023-05-24T22:52:53.595Z,61.44
2023-05-24T22:55:20.103Z,61.40
2023-05-24T22:57:46.622Z,61.65
2023-05-24T23:00:13.440Z,61.57
2023-05-24T23:02:39.905Z,61.47
2023-05-24T23:05:06.762Z,61.73
2023-05-24T23:07:33.243Z,61.88
2023-05-24T23:09:59.790Z,62.01
2023-05-24T23:12:26.390Z,62.38
2023-05-24T23:14:53.988Z,62.48
2023-05-24T23:17:23.624Z,62.83
2023-05-24T23:19:50.313Z,62.76
2023-05-24T23:22:19.927Z,62.45
2023-05-24T23:24:49.168Z,62.49
2023-05-24T23:27:15.592Z,62.39
2023-05-24T23:29:42.103Z,62.25
2023-05-24T23:32:09.477Z,62.12
2023-05-24T23:34:36.964Z,61.96
2023-05-24T23:37:04.492Z,61.72
2023-05-24T23:39:31.202Z,61.83
2023-05-24T23:41:57.732Z,62.03
2023-05-24T23:44:25.450Z,62.06
2023-05-24T23:46:53.042Z,62.31
2023-05-24T23:49:20.381Z,62.30
2023-05-24T23:51:46.850Z,62.61
2023-05-24T23:54:16.378Z,62.36
2023-05-24T23:56:42.845Z,62.45
2023-05-24T23:59:09.371Z,62.74
